map of PWM home
PWM - Airport
Location
City:  Portland, Maine, United States
Name:Portland International Jetport
ICAO:KPWM
IATA:PWM
FAA LID:PWM

Details
Type:Airport (Part 139 Class I)
Use:Public/Civil, International (customs landing rights)
Latitude:4338'44"N (43.645643)
Longitude:7018'31"W (-70.308615)
Datum:WGS 1984
Elevation:75 ft (23 m)
Variation:15.08W (WMM2015v2 magnetic declination)
0.10 annual change
Runways:2
Longest:7200 × 150 ft (2195 × 45.5 m), paved

Time
Time Zone:UTC-5 (DST-4)
Local Time:

Weather
METAR:KPWM 041351Z 20007KT 180V240 8SM OVC080 03/M01 A3000 RMK AO2 SLP159 T00281006
TAF:KPWM 041120Z 0412/0512 VRB05KT P6SM BKN050 OVC100
FM050300 VRB03KT 1SM BR BKN002

Related Locations
Nearby:
Farthest:YAUG: 11726 mi / 18871 km
Augusta [Augusta Airport], WA, AU

Find:

   beyond  
but within

Other Information
Maps:
Delays:
NOTAMs:
Links:
Sources:

  
  • flag of United States
  • flag of Maine
  

Airport Diagram

Airport diagram for PWM

Airport diagram PDF from FAA

Sectional Chart

Flight Planning
at skyvector.com

Satellite Image

Google Maps Satellite view

 

Copyright © 2004-2019 Karl L. Swartz. All rights reserved.
The Great Circle Mapper name and logo are trademarks of the Great Circle Mapper.
All other trademarks mentioned herein belong to their respective owners.
Please see credits for attibutions and further copyright information.

  Follow gcmap on Facebook Follow gcmap on Twitter GCmap on LinkedIn

hCard Microformat

Geo Microformat